• Join FlightAware (Why Join?)
  • Login
  • US Flag 
08:27AM EST


 

Airport Tracker/Info


-or-


 

Live Flight TrackerFlight Track Log ✈ N86BA ✈ 02-May-2012 ✈ KTMB - MDJB / JBQ

Flight Track Log - Related Links

Times and Time Zones

All times are in EDT time to prevent confusion due to time zone crossing. See the N86BA flight status page for this flight to view local times or setup timezone preferences in your user account.

Time Position Orientation Groundspeed Altitude Reporting Facility
EDT Latitude Longitude Course Direction KTS MPH feet Rate Location/Type
01:12PM 25.6425 -80.4083 92° East 165 190 400  Level Miami Center
01:13PM 25.6400 -80.3322 90° East 205 236 2,400 1,800 Climbing Miami Center
01:14PM 25.6397 -80.2631 90° East 217 250 4,500 1,440 Climbing Miami Center
01:15PM 25.6394 -80.1869 96° East 254 292 5,400 660 Climbing Miami Center
01:16PM 25.6292 -80.0808 96° East 267 307 6,100 480 Climbing Miami Center
01:17PM 25.6225 -80.0069 95° East 287 330 6,500 1,020 Climbing Miami Center
01:18PM 25.6158 -79.9261 96° East 281 323 8,200 1,500 Climbing Miami Center
01:19PM 25.6089 -79.8475 97° East 270 311 9,500 1,200 Climbing Miami Center
01:20PM 25.6003 -79.7644 97° East 270 311 10,700 1,200 Climbing Miami Center
01:21PM 25.5914 -79.6789 97° East 270 311 11,900 1,200 Climbing Miami Center
01:22PM 25.5825 -79.5936 117° Southeast 276 318 13,100 1,200 Climbing Miami Center
01:23PM 25.5483 -79.5192 123° Southeast 276 318 14,300 1,080 Climbing Miami Center
01:24PM 25.5039 -79.4422 120° Southeast 281 323 15,300 1,140 Climbing Miami Center
01:25PM 25.4633 -79.3653 122° Southeast 291 335 16,600 1,140 Climbing Miami Center
01:26PM 25.4208 -79.2886 121° Southeast 296 341 17,600 900 Climbing Miami Center
01:27PM 25.3783 -79.2094 120° Southeast 296 341 18,500 900 Climbing Miami Center
01:28PM 25.3356 -79.1281 122° Southeast 301 346 19,500 900 Climbing Miami Center
01:29PM 25.2908 -79.0492 120° Southeast 301 346 20,400 960 Climbing Miami Center
01:30PM 25.2481 -78.9681 121° Southeast 301 346 21,500 900 Climbing Miami Center
01:31PM 25.2094 -78.8961 120° Southeast 301 346 22,300 900 Climbing Miami Center
01:32PM 25.1667 -78.8128 126° Southeast 301 346 23,300 900 Climbing Miami Center
01:33PM 25.1133 -78.7317 118° Southeast 308 354 24,200 900 Climbing Miami Center
01:34PM 25.0706 -78.6439 120° Southeast 313 360 25,200 900 Climbing Miami Center
01:35PM 25.0256 -78.5583 122° Southeast 324 373 26,000 720 Climbing Miami Center
01:36PM 24.9764 -78.4728 122° Southeast 324 373 26,700 480 Climbing Miami Center
01:37PM 24.9250 -78.3828 121° Southeast 329 379 27,000 120 Climbing Miami Center
01:38PM 24.8717 -78.2836 122° Southeast 347 399 27,000  Level Miami Center
01:39PM 24.8142 -78.1822 121° Southeast 367 422 27,000  Level Miami Center
01:40PM 24.7567 -78.0786 121° Southeast 385 443 27,000  Level Miami Center
01:41PM 24.6989 -77.9728 123° Southeast 396 456 27,000  Level Miami Center
01:42PM 24.6389 -77.8694 121° Southeast 396 456 27,000  Level Miami Center
01:43PM 24.5811 -77.7639 122° Southeast 401 461 27,000  Level Miami Center
01:44PM 24.5211 -77.6583 121° Southeast 406 467 27,000  Level Miami Center
01:45PM 24.4611 -77.5506 122° Southeast 411 473 27,000  Level Miami Center
01:46PM 24.4008 -77.4453 121° Southeast 411 473 27,000  Level Miami Center
01:47PM 24.3408 -77.3378 120° Southeast 411 473 27,000  Level Miami Center
01:48PM 24.2844 -77.2306 122° Southeast 411 473 27,000  Level Miami Center
01:49PM 24.2222 -77.1208 123° Southeast 411 473 27,000  Level Miami Center
01:50PM 24.1617 -77.0183 122° Southeast 411 473 27,000  Level Miami Center
01:51PM 24.0969 -76.9044 122° Southeast 406 467 27,000  Level Miami Center
01:52PM 24.0425 -76.8089 122° Southeast 413 475 27,000  Level Miami Center
01:53PM 23.9819 -76.7019 122° Southeast 413 475 27,000  Level Miami Center
01:54PM 23.9233 -76.5997 122° Southeast 413 475 27,000  Level Miami Center
01:55PM 23.8625 -76.4931 122° Southeast 408 470 27,000  Level Miami Center
01:56PM 23.8036 -76.3911 122° Southeast 408 470 27,000  Level Miami Center
01:57PM 23.7447 -76.2869 122° Southeast 408 470 27,000  Level Miami Center
01:58PM 23.6858 -76.1828 123° Southeast 408 470 27,000  Level Miami Center
01:59PM 23.6247 -76.0786 122° Southeast 408 470 27,000  Level Miami Center
02:00PM 23.5656 -75.9747 122° Southeast 408 470 27,000  Level Miami Center
02:01PM 23.5064 -75.8733 127° Southeast 408 470 27,000  Level Miami Center
02:02PM 23.4303 -75.7631 117° Southeast 408 470 27,000  Level Miami Center
02:03PM 23.3772 -75.6503 126° Southeast 414 476 27,000  Level Miami Center
02:04PM 23.3117 -75.5511 126° Southeast 409 471 27,000  Level Miami Center
02:05PM 23.2461 -75.4525 126° Southeast 404 465 27,000  Level Miami Center
02:06PM 23.1825 -75.3583 126° Southeast 404 465 27,000  Level Miami Center
02:07PM 23.1167 -75.2597 126° Southeast 404 465 27,000  Level Miami Center
02:08PM 23.0528 -75.1633 127° Southeast 404 465 27,000  Level Miami Center
02:09PM 22.9847 -75.0650 124° Southeast 404 465 27,000  Level Miami Center
02:10PM 22.9231 -74.9667 127° Southeast 404 465 27,000  Level Miami Center
02:11PM 22.8569 -74.8706 127° Southeast 404 465 27,000  Level Miami Center
02:12PM 22.7911 -74.7747 126° Southeast 404 465 27,000  Level Miami Center
02:13PM 22.7247 -74.6767 127° Southeast 404 465 27,000  Level Miami Center
02:14PM 22.6586 -74.5811 125° Southeast 404 465 27,000  Level Miami Center
02:15PM 22.5944 -74.4833 127° Southeast 404 465 27,000  Level Miami Center
02:16PM 22.5303 -74.3900 126° Southeast 404 465 27,000  Level Miami Center
02:17PM 22.4619 -74.2900 126° Southeast 404 465 27,000  Level Miami Center
02:18PM 22.3975 -74.1947 127° Southeast 404 465 27,000  Level Miami Center
02:19PM 22.3311 -74.0997 126° Southeast 404 465 27,000  Level Miami Center
02:20PM 22.2644 -74.0022 125° Southeast 404 465 27,000  Level Miami Center
02:21PM 22.2000 -73.9028 127° Southeast 404 465 27,000  Level Miami Center
02:22PM 22.1311 -73.8058 131° Southeast 404 465 27,000  Level Miami Center
02:23PM 22.0647 -73.7244 127° Southeast 404 465 27,000  Level Miami Center
02:24PM 21.9961 -73.6275 125° Southeast 404 465 27,000  Level Miami Center
02:25PM 21.9311 -73.5283 127° Southeast 409 471 27,000  Level Miami Center
02:26PM 21.8644 -73.4317 129° Southeast 409 471 27,000  Level Miami Center
02:27PM 21.7933 -73.3375 126° Southeast 409 471 27,000  Level Miami Center
02:28PM 21.7264 -73.2386 127° Southeast 409 471 27,000  Level Miami Center
02:29PM 21.6572 -73.1400 126° Southeast 404 465 27,000  Level Miami Center
02:30PM 21.5900 -73.0414 128° Southeast 409 471 27,000  Level Miami Center
02:31PM 21.5186 -72.9431 127° Southeast 409 471 27,000  Level Miami Center
02:32PM 21.4492 -72.8425 127° Southeast 409 471 27,000  Level Miami Center
02:33PM 21.3819 -72.7467 128° Southeast 409 471 27,000  Level Miami Center
02:34PM 21.3106 -72.6486 127° Southeast 409 471 27,000  Level Miami Center
02:35PM 21.2431 -72.5528 127° Southeast 404 465 27,000  Level Miami Center
02:36PM 21.1736 -72.4550 126° Southeast 404 465 27,000  Level Miami Center
02:37PM 21.1061 -72.3569 127° Southeast 404 465 27,000  Level Miami Center
02:38PM 21.0364 -72.2592 128° Southeast 404 465 27,000  Level Miami Center
02:39PM 20.9667 -72.1639 128° Southeast 404 465 27,000  Level Miami Center
02:40PM 20.8972 -72.0686 127° Southeast 404 465 27,000  Level Miami Center
02:41PM 20.8294 -71.9711 128° Southeast 404 465 27,000  Level Miami Center
02:42PM 20.7594 -71.8739 127° Southeast 404 465 27,000  Level Miami Center
02:43PM 20.6919 -71.7789 127° Southeast 404 465 27,000  Level Miami Center
02:44PM 20.6219 -71.6797 128° Southeast 404 465 27,000  Level Miami Center
02:45PM 20.5519 -71.5850 127° Southeast 404 465 27,000  Level Miami Center
02:46PM 20.4839 -71.4881 131° Southeast 404 465 27,000  Level Miami Center
02:47PM 20.4100 -71.3981 129° Southeast 404 465 27,000  Level Miami Center
02:55PM 19.9427 -70.7914 150° Southeast  Level FlightAware Approximate
02:56PM 19.8570 -70.7385 114° Southeast  Level FlightAware Approximate
02:57PM 19.8185 -70.6466 152° Southeast  Level FlightAware Approximate
02:58PM 19.7308 -70.5977 152° Southeast  Level FlightAware Approximate
02:59PM 19.6430 -70.5488 152° Southeast  Level FlightAware Approximate
03:00PM 19.5552 -70.5000 152° Southeast  Level FlightAware Approximate
03:01PM 19.4674 -70.4512 152° Southeast  Level FlightAware Approximate
03:02PM 19.3796 -70.4025 152° Southeast  Level FlightAware Approximate
03:03PM 19.2918 -70.3538 152° Southeast  Level FlightAware Approximate
03:04PM 19.2040 -70.3052 152° Southeast  Level FlightAware Approximate
03:05PM 19.1161 -70.2567 152° Southeast  Level FlightAware Approximate
03:06PM 19.0283 -70.2082 152° Southeast  Level FlightAware Approximate
03:07PM 18.9404 -70.1597 152° Southeast  Level FlightAware Approximate
03:08PM 18.8525 -70.1113 127° Southeast  Level FlightAware Approximate
03:09PM 18.7951 -70.0321 168° South  Level FlightAware Approximate
03:10PM 18.6983 -70.0097 169° South  Level FlightAware Approximate
03:11PM 18.6010 -69.9902 171° South  Level FlightAware Approximate
03:12PM 18.5030 -69.9744 351° North  Level Estimated
03:13PM 18.6010 -69.9902 171° South  Level Estimated
03:14PM 18.5030 -69.9744 351° North  Level Estimated
03:15PM 18.6010 -69.9902 169° South  Level Estimated
03:16PM 18.5667 -69.9833 340° North  Level FlightAware Approximate
03:17PM 18.6596 -70.0196 160° South  Level Estimated
03:18PM 18.5667 -69.9833 340° North  Level FlightAware Approximate
03:19PM 18.6596 -70.0196 160° South  Level Estimated
03:20PM 18.5667 -69.9833 340° North  Level FlightAware Approximate
03:21PM 18.6596 -70.0196 160° South  Level Estimated
03:22PM 18.5667 -69.9833 340° North  Level FlightAware Approximate
03:23PM 18.6596 -70.0196 160° South  Level Estimated
03:24PM 18.5667 -69.9833 340° North  Level FlightAware Approximate
03:25PM 18.6596 -70.0196 160° South  Level Estimated
03:26PM 18.5667 -69.9833 340° North  Level FlightAware Approximate
03:27PM 18.6596 -70.0196 160° South  Level Estimated
03:28PM 18.5667 -69.9833 340° North  Level FlightAware Approximate
03:29PM 18.6596 -70.0196 160° South  Level Estimated
03:30PM 18.5667 -69.9833 160° South  Level FlightAware Approximate